Time;durP1;ratioP1;P1;durP2;ratioP2;P2;SDS_P1;SDS_P2;PMS_P1;PMS_P2;Temp;Humidity;BMP_temperature;BMP_pressure;BME280_temperature;BME280_humidity;BME280_pressure;Samples;Min_cycle;Max_cycle;Signal;HPM_P1;HPM_P2
2021/06/15 00:01:50;;;;;;;5.57;5.17;;;17.90;99.90;;;;;;5011936;28;20171;-64
2021/06/15 00:04:15;;;;;;;9.80;6.40;;;17.80;99.90;;;;;;5011699;28;20222;-64
2021/06/15 00:06:41;;;;;;;6.50;5.90;;;17.80;99.90;;;;;;5011816;28;20175;-64
2021/06/15 00:09:06;;;;;;;6.63;5.93;;;17.70;99.90;;;;;;5011593;28;20180;-63
2021/06/15 00:11:32;;;;;;;6.93;6.37;;;17.70;99.90;;;;;;5012184;28;20663;-64
2021/06/15 00:13:58;;;;;;;6.93;5.63;;;17.70;99.90;;;;;;5011858;28;20651;-63
2021/06/15 00:16:23;;;;;;;6.30;5.70;;;17.60;99.90;;;;;;5011701;28;20548;-63
2021/06/15 00:18:49;;;;;;;6.50;5.87;;;17.60;99.90;;;;;;5011572;28;20182;-63
2021/06/15 00:21:14;;;;;;;6.83;6.23;;;17.60;99.90;;;;;;5011552;28;20171;-66
2021/06/15 00:23:40;;;;;;;7.07;6.47;;;17.60;99.90;;;;;;5011661;28;20566;-64
2021/06/15 00:26:05;;;;;;;6.60;6.00;;;17.60;99.90;;;;;;5011885;28;20171;-63
2021/06/15 00:28:31;;;;;;;6.33;5.73;;;17.60;99.90;;;;;;5011420;28;20229;-64
2021/06/15 00:30:56;;;;;;;7.20;6.70;;;17.60;99.90;;;;;;5011515;28;20182;-63
2021/06/15 00:33:22;;;;;;;6.07;5.30;;;17.50;99.90;;;;;;5011552;28;20177;-63
2021/06/15 00:35:48;;;;;;;7.20;6.23;;;17.50;99.90;;;;;;5011284;28;20262;-65
2021/06/15 00:38:13;;;;;;;7.97;7.37;;;17.40;99.90;;;;;;5011580;28;20172;-63
2021/06/15 00:40:39;;;;;;;7.57;6.53;;;17.30;99.90;;;;;;5026495;28;20175;-64
2021/06/15 00:43:04;;;;;;;6.93;6.33;;;17.30;99.90;;;;;;5011404;28;20198;-64
2021/06/15 00:45:32;;;;;;;7.73;7.00;;;17.20;99.90;;;;;;5014881;28;20202;-63
2021/06/15 00:47:58;;;;;;;11.83;7.00;;;17.10;99.90;;;;;;5015010;28;20538;-64
2021/06/15 00:50:25;;;;;;;7.43;6.43;;;17.10;99.90;;;;;;5014507;28;20410;-64
2021/06/15 00:52:52;;;;;;;6.40;5.80;;;17.10;99.90;;;;;;5014960;28;20167;-64
2021/06/15 00:55:19;;;;;;;7.00;6.40;;;17.10;99.90;;;;;;5014715;28;20985;-64
2021/06/15 00:57:45;;;;;;;6.20;5.60;;;17.10;99.90;;;;;;5014851;28;20911;-64
2021/06/15 01:00:11;;;;;;;7.27;6.03;;;17.10;99.90;;;;;;5014341;28;20410;-64
2021/06/15 01:02:37;;;;;;;6.60;6.00;;;17.10;99.90;;;;;;5014598;28;20217;-64
2021/06/15 01:05:08;;;;;;;7.47;6.60;;;17.10;99.90;;;;;;5014649;28;20967;-64
2021/06/15 01:07:34;;;;;;;8.30;6.60;;;17.10;99.90;;;;;;5014597;28;20446;-63
2021/06/15 01:10:09;;;;;;;6.43;5.83;;;17.10;99.90;;;;;;5014344;28;20839;-64
2021/06/15 01:12:48;;;;;;;7.20;6.50;;;17.00;99.90;;;;;;5014553;28;20178;-63
2021/06/15 01:15:42;;;;;;;7.13;6.53;;;17.00;99.90;;;;;;5014324;28;20507;-64
2021/06/15 01:18:15;;;;;;;7.77;7.17;;;16.90;99.90;;;;;;5014545;28;20507;-63
2021/06/15 01:20:51;;;;;;;6.40;5.90;;;16.90;99.90;;;;;;5014327;28;20429;-63
2021/06/15 01:23:39;;;;;;;7.57;6.80;;;16.80;99.90;;;;;;5014339;28;20449;-64
2021/06/15 01:26:42;;;;;;;8.80;6.10;;;16.80;99.90;;;;;;5014247;28;20414;-65
2021/06/15 01:29:14;;;;;;;6.73;6.13;;;16.80;99.90;;;;;;5013895;28;20451;-64
2021/06/15 01:31:46;;;;;;;7.07;6.37;;;16.80;99.90;;;;;;5014136;28;20496;-63
2021/06/15 01:34:22;;;;;;;7.63;6.13;;;16.80;99.90;;;;;;5014044;28;20495;-64
2021/06/15 01:37:03;;;;;;;12.70;7.40;;;16.80;99.90;;;;;;5013898;28;20472;-64
2021/06/15 01:39:33;;;;;;;7.23;6.50;;;16.70;99.90;;;;;;5014153;28;20985;-63
2021/06/15 01:42:03;;;;;;;6.73;6.23;;;16.60;99.90;;;;;;5013989;28;20838;-64
2021/06/15 01:44:30;;;;;;;7.30;6.80;;;16.60;99.90;;;;;;5013685;28;20457;-63
2021/06/15 01:47:02;;;;;;;7.40;6.67;;;16.60;99.90;;;;;;5013879;28;20513;-64
2021/06/15 01:49:31;;;;;;;6.10;5.70;;;16.60;99.90;;;;;;5013655;28;20427;-64
2021/06/15 01:51:58;;;;;;;7.40;6.70;;;16.60;99.90;;;;;;5013682;28;20505;-64
2021/06/15 01:54:26;;;;;;;7.67;7.00;;;16.60;99.90;;;;;;5014048;28;20525;-64
2021/06/15 01:56:53;;;;;;;6.70;6.10;;;16.50;99.90;;;;;;5012918;28;20426;-64
2021/06/15 01:59:25;;;;;;;7.23;6.73;;;16.50;99.90;;;;;;5013268;28;20438;-64
2021/06/15 02:01:55;;;;;;;8.70;6.83;;;16.50;99.90;;;;;;5012553;28;20430;-64
2021/06/15 02:04:23;;;;;;;7.17;6.27;;;16.40;99.90;;;;;;5013610;28;20484;-64
2021/06/15 02:06:50;;;;;;;6.80;6.20;;;16.40;99.90;;;;;;5013444;28;20422;-64
2021/06/15 02:09:17;;;;;;;6.63;6.10;;;16.40;99.90;;;;;;5013223;28;20790;-63
2021/06/15 02:11:43;;;;;;;7.10;6.50;;;16.50;99.90;;;;;;5013305;28;20456;-64
2021/06/15 02:14:17;;;;;;;7.10;6.17;;;16.40;99.90;;;;;;5013238;28;20913;-64
2021/06/15 02:16:45;;;;;;;7.53;6.83;;;16.50;99.90;;;;;;5013443;28;20169;-64
2021/06/15 02:19:11;;;;;;;8.20;7.13;;;16.40;99.90;;;;;;5012993;28;20414;-64
2021/06/15 02:21:40;;;;;;;7.20;6.60;;;16.40;99.90;;;;;;5013256;28;20541;-64
2021/06/15 02:24:06;;;;;;;7.47;6.87;;;16.50;99.90;;;;;;5012897;28;20468;-64
2021/06/15 02:26:32;;;;;;;7.60;6.93;;;16.40;99.90;;;;;;5013179;28;20418;-64
2021/06/15 02:28:59;;;;;;;7.13;6.60;;;16.40;99.90;;;;;;5012698;28;20413;-64
2021/06/15 02:31:31;;;;;;;6.60;6.00;;;16.30;99.90;;;;;;5013399;28;20222;-64
2021/06/15 02:34:02;;;;;;;7.23;6.53;;;16.30;99.90;;;;;;5012957;28;20911;-64
2021/06/15 02:36:32;;;;;;;6.73;6.00;;;16.40;99.90;;;;;;5008759;28;20433;-64
2021/06/15 02:39:07;;;;;;;7.60;6.57;;;16.40;99.90;;;;;;5011379;28;20417;-64
2021/06/15 02:41:36;;;;;;;8.60;7.20;;;16.30;99.90;;;;;;5011999;28;20891;-63
2021/06/15 02:44:04;;;;;;;6.93;6.33;;;16.30;99.90;;;;;;5011446;28;20464;-64
2021/06/15 02:46:34;;;;;;;7.50;6.80;;;16.20;99.90;;;;;;5012746;28;20421;-64
2021/06/15 02:49:05;;;;;;;7.37;6.73;;;16.10;99.90;;;;;;5012501;28;20422;-64
2021/06/15 02:51:34;;;;;;;12.40;7.47;;;16.10;99.90;;;;;;5012756;28;20422;-63
2021/06/15 02:54:21;;;;;;;6.77;6.17;;;16.10;99.90;;;;;;5012611;28;21022;-63
2021/06/15 02:56:53;;;;;;;7.30;6.40;;;16.10;99.90;;;;;;5012653;28;20926;-63
2021/06/15 02:59:20;;;;;;;7.30;6.57;;;16.00;99.90;;;;;;5012299;28;20417;-64
2021/06/15 03:01:50;;;;;;;7.20;6.60;;;16.00;99.90;;;;;;5012578;28;20418;-63
2021/06/15 03:04:17;;;;;;;6.37;5.77;;;15.90;99.90;;;;;;5012413;28;20458;-64
2021/06/15 03:06:43;;;;;;;7.37;6.83;;;15.90;99.90;;;;;;5012299;28;20422;-64
2021/06/15 03:09:09;;;;;;;7.03;6.30;;;15.90;99.90;;;;;;5012249;28;20417;-64
2021/06/15 03:11:41;;;;;;;6.70;6.10;;;15.90;99.90;;;;;;5012476;28;20509;-64
2021/06/15 03:14:21;;;;;;;7.63;6.90;;;15.90;99.90;;;;;;5012162;28;20440;-64
2021/06/15 03:16:48;;;;;;;6.93;6.43;;;15.80;99.90;;;;;;5012496;28;20405;-63
2021/06/15 03:19:27;;;;;;;10.77;6.67;;;15.90;99.90;;;;;;5012145;28;20512;-64
2021/06/15 03:22:12;;;;;;;8.83;8.03;;;15.80;99.90;;;;;;5012313;28;20420;-64
2021/06/15 03:24:43;;;;;;;8.00;7.20;;;15.70;99.90;;;;;;5012005;28;20468;-64
2021/06/15 03:27:12;;;;;;;7.70;7.00;;;15.80;99.90;;;;;;5012267;28;20418;-62
2021/06/15 03:29:40;;;;;;;7.50;6.80;;;15.80;99.90;;;;;;5011884;28;20462;-65
2021/06/15 03:32:15;;;;;;;8.47;6.63;;;15.90;99.90;;;;;;5012242;28;20418;-66
2021/06/15 03:34:54;;;;;;;7.60;6.90;;;15.90;99.90;;;;;;5012257;28;20488;-63
2021/06/15 03:37:23;;;;;;;8.53;7.67;;;16.00;99.90;;;;;;5011995;28;20429;-64
2021/06/15 03:39:52;;;;;;;10.37;6.27;;;16.10;99.90;;;;;;5011889;28;20989;-64
2021/06/15 03:42:21;;;;;;;11.00;6.43;;;16.10;99.90;;;;;;5010816;28;20426;-63
2021/06/15 03:45:03;;;;;;;9.50;7.43;;;16.10;99.90;;;;;;5011892;28;20548;-64
2021/06/15 03:47:30;;;;;;;7.20;6.00;;;16.20;99.90;;;;;;5011895;28;20422;-64
2021/06/15 03:49:56;;;;;;;8.37;7.60;;;16.20;99.90;;;;;;5011701;28;20446;-63
2021/06/15 03:52:29;;;;;;;9.73;6.67;;;16.30;99.90;;;;;;5011964;28;20509;-64
2021/06/15 03:54:57;;;;;;;11.83;8.17;;;16.20;99.90;;;;;;5011974;28;20434;-64
2021/06/15 03:57:24;;;;;;;8.83;7.03;;;16.20;99.90;;;;;;5011984;28;20421;-64
2021/06/15 03:59:51;;;;;;;10.43;7.47;;;16.30;99.90;;;;;;5010099;28;20843;-64
2021/06/15 04:02:19;;;;;;;11.80;7.37;;;16.30;99.90;;;;;;5012002;28;20426;-64
2021/06/15 04:04:46;;;;;;;6.90;6.20;;;16.40;99.90;;;;;;5011723;28;21003;-64
2021/06/15 04:07:16;;;;;;;8.70;7.80;;;16.50;99.90;;;;;;5011877;28;20458;-63
2021/06/15 04:09:43;;;;;;;6.97;6.47;;;16.50;99.90;;;;;;5011553;28;20418;-64
2021/06/15 04:12:11;;;;;;;8.73;7.90;;;16.70;99.90;;;;;;5011760;28;20518;-63
2021/06/15 04:14:38;;;;;;;8.60;7.80;;;16.80;99.90;;;;;;5011604;28;20429;-64
2021/06/15 04:17:07;;;;;;;8.23;7.27;;;16.80;99.90;;;;;;5011757;28;20429;-64
2021/06/15 04:19:41;;;;;;;7.40;6.70;;;16.90;99.90;;;;;;5014045;28;20426;-64
2021/06/15 04:22:11;;;;;;;7.30;6.60;;;17.10;99.90;;;;;;5015601;28;20421;-64
2021/06/15 04:24:39;;;;;;;8.73;7.47;;;17.20;99.90;;;;;;5015273;28;20458;-64
2021/06/15 04:27:06;;;;;;;7.90;7.20;;;17.20;99.90;;;;;;5015285;28;20437;-64
2021/06/15 04:29:31;;;;;;;10.97;8.40;;;17.20;99.90;;;;;;5015334;28;20498;-64
2021/06/15 04:32:00;;;;;;;7.33;6.73;;;17.30;99.90;;;;;;5015495;28;20518;-64
2021/06/15 04:34:26;;;;;;;8.67;7.77;;;17.30;99.90;;;;;;5019008;28;20292;-64
2021/06/15 04:36:57;;;;;;;8.43;7.53;;;17.40;99.90;;;;;;5017603;28;20987;-64
2021/06/15 04:39:28;;;;;;;7.33;6.73;;;17.50;99.90;;;;;;5018636;28;20433;-65
2021/06/15 04:41:58;;;;;;;7.70;7.17;;;17.60;99.90;;;;;;5029866;28;20432;-64
2021/06/15 04:44:39;;;;;;;7.50;6.83;;;17.80;99.90;;;;;;5034466;28;20476;-64
2021/06/15 04:47:13;;;;;;;9.33;8.33;;;18.00;99.90;;;;;;5022902;28;20475;-63
2021/06/15 04:49:56;;;;;;;8.03;6.80;;;18.20;99.90;;;;;;5022865;28;21000;-64
2021/06/15 04:52:25;;;;;;;6.90;6.20;;;18.40;99.90;;;;;;5018803;28;20790;-64
2021/06/15 04:54:52;;;;;;;7.00;6.40;;;18.60;99.90;;;;;;5024466;28;20452;-64
2021/06/15 04:57:22;;;;;;;8.07;7.27;;;18.80;99.90;;;;;;5022125;28;20422;-64
2021/06/15 04:59:52;;;;;;;8.13;7.33;;;19.00;99.90;;;;;;5018544;28;20461;-64
2021/06/15 05:02:22;;;;;;;7.90;7.10;;;19.10;99.90;;;;;;5014683;28;20938;-64
2021/06/15 05:04:49;;;;;;;11.40;7.30;;;19.30;99.90;;;;;;5014368;28;20817;-64
2021/06/15 05:07:17;;;;;;;6.83;6.23;;;19.50;99.90;;;;;;5014541;28;20486;-64
2021/06/15 05:09:43;;;;;;;7.77;6.90;;;19.60;99.90;;;;;;5013008;28;20422;-64
2021/06/15 05:12:11;;;;;;;6.57;5.90;;;19.60;99.90;;;;;;5014611;28;20770;-64
2021/06/15 05:14:41;;;;;;;6.60;6.10;;;19.90;99.90;;;;;;5014432;28;20456;-64
2021/06/15 05:17:08;;;;;;;7.50;6.73;;;20.10;99.90;;;;;;5014388;28;20424;-65
2021/06/15 05:19:34;;;;;;;6.53;5.73;;;20.20;99.90;;;;;;5014181;28;20410;-64
2021/06/15 05:22:13;;;;;;;7.27;6.27;;;20.30;99.90;;;;;;5014331;28;20422;-64
2021/06/15 05:24:57;;;;;;;6.90;6.33;;;20.40;99.90;;;;;;5014250;28;20461;-64
2021/06/15 05:27:33;;;;;;;8.40;6.03;;;20.50;99.90;;;;;;5014280;28;20409;-64
2021/06/15 05:30:00;;;;;;;6.17;5.47;;;20.70;99.90;;;;;;5013848;28;20429;-63
2021/06/15 05:32:29;;;;;;;10.47;7.07;;;20.90;99.90;;;;;;5014196;28;20417;-65
2021/06/15 05:34:55;;;;;;;7.87;5.80;;;21.10;99.90;;;;;;5014091;28;20503;-63
2021/06/15 05:37:21;;;;;;;6.73;6.10;;;21.40;99.90;;;;;;5014707;28;20512;-64
2021/06/15 05:39:46;;;;;;;16.00;6.93;;;21.50;99.90;;;;;;5013699;28;20252;-64
2021/06/15 05:42:12;;;;;;;6.80;5.90;;;21.70;99.90;;;;;;5020540;28;20703;-64
2021/06/15 05:44:39;;;;;;;7.13;6.53;;;21.70;99.90;;;;;;5019182;28;20207;-64
2021/06/15 05:47:05;;;;;;;8.27;5.93;;;21.80;99.90;;;;;;5015045;28;20171;-64
2021/06/15 05:49:30;;;;;;;8.53;5.50;;;22.00;99.90;;;;;;5033514;28;20937;-64
2021/06/15 05:52:11;;;;;;;7.90;5.07;;;22.20;99.90;;;;;;5033611;28;20201;-64
2021/06/15 05:54:37;;;;;;;11.20;10.20;;;22.40;99.90;;;;;;5033431;28;20436;-64
2021/06/15 05:57:05;;;;;;;5.97;5.37;;;22.50;99.90;;;;;;5028571;28;20801;-64
2021/06/15 05:59:30;;;;;;;9.17;5.33;;;22.70;99.90;;;;;;5010435;28;20483;-64
2021/06/15 06:01:56;;;;;;;5.00;4.50;;;22.90;99.90;;;;;;5011862;28;20429;-64
2021/06/15 06:04:27;;;;;;;7.27;4.80;;;23.10;99.90;;;;;;5013494;28;20684;-64
2021/06/15 06:09:39;;;;;;;7.20;4.37;;;23.40;99.90;;;;;;5009527;28;20455;-64
2021/06/15 06:12:06;;;;;;;6.17;5.60;;;23.50;99.90;;;;;;5013570;28;20421;-64
2021/06/15 06:14:31;;;;;;;5.57;4.90;;;23.70;99.90;;;;;;5013346;28;20437;-64
2021/06/15 06:16:57;;;;;;;7.27;5.40;;;23.90;99.90;;;;;;5013612;28;20422;-64
2021/06/15 06:19:23;;;;;;;8.03;5.50;;;24.10;99.90;;;;;;5013047;28;20539;-64
2021/06/15 06:21:49;;;;;;;6.43;5.60;;;24.20;99.90;;;;;;4998652;28;20628;-64
2021/06/15 06:24:17;;;;;;;5.60;5.10;;;24.40;99.90;;;;;;4990675;28;20211;-64
2021/06/15 06:26:44;;;;;;;6.50;4.40;;;24.60;99.90;;;;;;4980182;28;20449;-64
2021/06/15 06:29:10;;;;;;;4.93;4.53;;;24.70;99.90;;;;;;5012722;28;20417;-64
2021/06/15 06:31:36;;;;;;;5.10;4.67;;;24.90;99.90;;;;;;5013732;28;20768;-64
2021/06/15 06:34:01;;;;;;;5.10;4.40;;;25.00;99.90;;;;;;5009443;28;20256;-64
2021/06/15 06:36:27;;;;;;;5.70;4.97;;;25.20;99.60;;;;;;5009330;28;20182;-64
2021/06/15 06:38:53;;;;;;;7.30;5.20;;;25.20;99.40;;;;;;5012996;28;20197;-64
2021/06/15 06:41:19;;;;;;;5.73;5.23;;;25.00;99.60;;;;;;5012632;28;20424;-64
2021/06/15 06:43:45;;;;;;;4.73;4.23;;;25.10;98.90;;;;;;5009957;28;20213;-64
2021/06/15 06:46:11;;;;;;;6.70;4.73;;;25.30;99.00;;;;;;5014415;28;20406;-63
2021/06/15 06:48:37;;;;;;;11.27;10.03;;;25.40;98.60;;;;;;5012477;28;20185;-64
2021/06/15 06:51:03;;;;;;;12.23;7.47;;;25.70;98.40;;;;;;5012942;28;20167;-63
2021/06/15 06:53:29;;;;;;;7.20;5.43;;;25.80;97.70;;;;;;5010443;28;20492;-63
2021/06/15 06:55:55;;;;;;;6.33;4.93;;;26.00;97.20;;;;;;5011345;28;20266;-64
2021/06/15 06:58:21;;;;;;;9.37;4.67;;;26.20;96.60;;;;;;5012537;28;20225;-63
2021/06/15 07:00:47;;;;;;;4.97;4.57;;;26.30;96.30;;;;;;5012439;28;20426;-64
2021/06/15 07:03:12;;;;;;;6.33;5.17;;;26.50;96.10;;;;;;5012265;28;20203;-64
2021/06/15 07:05:38;;;;;;;5.27;4.77;;;26.50;95.90;;;;;;5008945;28;20191;-63
2021/06/15 07:08:03;;;;;;;5.20;4.33;;;26.60;95.30;;;;;;5012498;28;20174;-63
2021/06/15 07:10:29;;;;;;;8.20;4.60;;;26.80;94.80;;;;;;5012589;28;20199;-63
2021/06/15 07:12:55;;;;;;;13.73;4.67;;;27.10;94.70;;;;;;5012614;28;20174;-63
2021/06/15 07:15:21;;;;;;;6.10;5.53;;;27.30;94.30;;;;;;5008599;28;20477;-64
2021/06/15 07:17:46;;;;;;;5.70;5.10;;;27.50;93.30;;;;;;5012231;28;20163;-63
2021/06/15 07:20:12;;;;;;;5.60;4.87;;;27.50;92.80;;;;;;4992700;28;20237;-64
2021/06/15 07:22:38;;;;;;;5.63;4.67;;;27.70;92.60;;;;;;5003836;28;20253;-64
2021/06/15 07:25:04;;;;;;;5.70;5.20;;;27.90;91.90;;;;;;5008225;28;20258;-64
2021/06/15 07:27:30;;;;;;;6.10;4.67;;;28.00;91.80;;;;;;5012418;28;20541;-64
2021/06/15 07:29:55;;;;;;;6.53;5.07;;;28.10;91.50;;;;;;5012005;28;20418;-64
2021/06/15 07:32:21;;;;;;;8.53;5.50;;;28.20;91.30;;;;;;5012139;28;20320;-64
2021/06/15 07:34:46;;;;;;;7.57;5.17;;;28.20;91.20;;;;;;5008460;28;20225;-64
2021/06/15 07:37:13;;;;;;;6.40;5.90;;;28.10;91.10;;;;;;4999302;28;20660;-64
2021/06/15 07:39:38;;;;;;;6.03;5.43;;;28.20;91.00;;;;;;4992348;28;20172;-64
2021/06/15 07:42:05;;;;;;;8.47;4.97;;;28.30;90.90;;;;;;4992493;28;20414;-64
2021/06/15 07:44:31;;;;;;;5.63;5.10;;;28.40;90.10;;;;;;4998211;28;20207;-64
2021/06/15 07:46:56;;;;;;;6.60;4.60;;;28.60;89.40;;;;;;5012014;28;20990;-64
2021/06/15 07:49:22;;;;;;;5.00;4.50;;;28.80;88.80;;;;;;5014324;28;20178;-64
2021/06/15 07:51:48;;;;;;;4.87;4.47;;;29.10;86.60;;;;;;5012169;28;20698;-64
2021/06/15 07:54:14;;;;;;;8.13;5.30;;;29.20;86.70;;;;;;5010128;28;20195;-64
2021/06/15 07:56:40;;;;;;;6.03;5.53;;;29.50;86.30;;;;;;5015981;28;20428;-64
2021/06/15 07:59:05;;;;;;;4.90;4.60;;;29.50;83.60;;;;;;5015671;28;20233;-64
2021/06/15 08:01:31;;;;;;;6.83;5.27;;;29.10;81.80;;;;;;5015769;28;20641;-64
2021/06/15 08:03:56;;;;;;;5.97;5.37;;;28.80;83.50;;;;;;5007412;28;20249;-64
2021/06/15 08:06:22;;;;;;;6.33;4.73;;;29.20;84.40;;;;;;4985782;28;20175;-64
2021/06/15 08:08:48;;;;;;;4.50;4.00;;;29.70;82.20;;;;;;5001999;28;20198;-64
2021/06/15 08:11:13;;;;;;;5.73;5.13;;;29.90;79.90;;;;;;5013804;28;20171;-64
2021/06/15 08:13:39;;;;;;;5.77;5.27;;;30.20;78.30;;;;;;5012729;28;20222;-64
2021/06/15 08:16:05;;;;;;;5.97;4.47;;;30.10;77.60;;;;;;5015107;28;20263;-64
2021/06/15 08:18:31;;;;;;;6.40;4.37;;;30.20;73.60;;;;;;5014346;28;20183;-64
2021/06/15 08:20:57;;;;;;;6.80;4.37;;;30.40;71.90;;;;;;5014665;28;20174;-64
2021/06/15 08:23:24;;;;;;;4.87;4.47;;;30.60;73.10;;;;;;5014987;28;20191;-64
2021/06/15 08:25:50;;;;;;;5.00;4.53;;;31.00;73.20;;;;;;5010485;28;20426;-64
2021/06/15 08:28:16;;;;;;;5.03;4.53;;;31.00;69.50;;;;;;5011968;28;20508;-64
2021/06/15 08:30:42;;;;;;;5.47;4.90;;;31.00;71.40;;;;;;5014893;28;20417;-64
2021/06/15 08:33:08;;;;;;;9.30;4.87;;;31.20;69.30;;;;;;5018606;28;20427;-64
2021/06/15 08:35:34;;;;;;;5.73;4.10;;;31.20;65.80;;;;;;5010329;28;20229;-64
2021/06/15 08:38:00;;;;;;;6.70;4.27;;;31.40;64.10;;;;;;5015601;28;20441;-64
2021/06/15 08:40:26;;;;;;;9.93;5.13;;;31.50;65.40;;;;;;5014991;28;20422;-64
2021/06/15 08:42:52;;;;;;;5.27;4.87;;;31.70;64.40;;;;;;5016290;28;20246;-64
2021/06/15 08:45:19;;;;;;;4.40;4.00;;;31.80;63.70;;;;;;5016101;28;20265;-64
2021/06/15 08:47:47;;;;;;;4.47;4.17;;;31.80;62.70;;;;;;5030702;28;20181;-63
2021/06/15 08:50:18;;;;;;;6.03;4.40;;;32.00;61.60;;;;;;5013267;28;20923;-64
2021/06/15 08:52:45;;;;;;;6.30;5.13;;;31.90;62.00;;;;;;5013751;28;20433;-64
2021/06/15 08:55:12;;;;;;;9.17;5.27;;;31.80;63.00;;;;;;5014697;28;20446;-64
2021/06/15 08:57:39;;;;;;;8.67;5.10;;;31.80;62.10;;;;;;5015569;28;20855;-64
2021/06/15 09:00:07;;;;;;;4.87;4.50;;;32.30;61.40;;;;;;5013857;28;20637;-64
2021/06/15 09:02:44;;;;;;;8.70;5.00;;;32.20;60.90;;;;;;5013653;28;20444;-64
2021/06/15 09:05:12;;;;;;;6.07;5.03;;;32.00;62.10;;;;;;5009954;28;20461;-64
2021/06/15 09:07:59;;;;;;;6.00;4.50;;;32.10;60.20;;;;;;5013612;28;20815;-64
2021/06/15 09:10:26;;;;;;;6.07;5.33;;;32.30;60.20;;;;;;5013108;28;20834;-64
2021/06/15 09:12:51;;;;;;;4.77;4.37;;;32.30;59.90;;;;;;5012993;28;20414;-64
2021/06/15 09:15:21;;;;;;;5.53;5.10;;;32.30;59.40;;;;;;5011185;28;20446;-64
2021/06/15 09:17:47;;;;;;;5.53;4.90;;;32.30;58.70;;;;;;5013792;28;20175;-64
2021/06/15 09:20:25;;;;;;;4.73;4.33;;;32.30;58.20;;;;;;5020654;28;20496;-63
2021/06/15 09:23:11;;;;;;;7.80;7.00;;;32.30;59.20;;;;;;5029773;28;20428;-64
2021/06/15 09:25:37;;;;;;;7.27;4.70;;;32.40;58.30;;;;;;5007954;28;20500;-64
2021/06/15 09:28:22;;;;;;;5.87;5.27;;;32.70;57.40;;;;;;5030448;28;20421;-64
2021/06/15 09:31:02;;;;;;;8.23;4.33;;;33.10;57.40;;;;;;5034281;28;20181;-64
2021/06/15 09:33:43;;;;;;;5.47;4.87;;;33.30;56.00;;;;;;5034642;28;20412;-64
2021/06/15 09:36:14;;;;;;;5.23;4.80;;;32.90;55.50;;;;;;5012761;28;20430;-64
2021/06/15 09:39:00;;;;;;;6.27;5.27;;;32.50;55.40;;;;;;5019253;28;20425;-64
2021/06/15 09:41:43;;;;;;;5.87;4.90;;;32.20;56.70;;;;;;5028890;28;20508;-64
2021/06/15 09:44:12;;;;;;;6.03;4.27;;;32.40;57.80;;;;;;5015514;28;20600;-64
2021/06/15 09:46:56;;;;;;;5.13;4.67;;;32.70;56.80;;;;;;5014568;28;20419;-64
2021/06/15 09:49:40;;;;;;;5.37;4.83;;;33.00;55.20;;;;;;5013311;28;20484;-64
2021/06/15 09:52:09;;;;;;;6.17;4.90;;;33.10;54.90;;;;;;5030530;28;20492;-63
2021/06/15 09:54:55;;;;;;;5.13;4.27;;;32.80;55.30;;;;;;5020819;28;20489;-64
2021/06/15 09:57:26;;;;;;;4.67;4.17;;;33.00;54.50;;;;;;5012660;28;20457;-64
2021/06/15 10:00:00;;;;;;;4.90;4.50;;;33.10;54.10;;;;;;5029166;28;20428;-64
2021/06/15 10:02:27;;;;;;;4.40;4.07;;;33.00;54.00;;;;;;5012533;28;20436;-65
2021/06/15 10:04:52;;;;;;;4.50;4.10;;;33.50;53.20;;;;;;5010604;28;20464;-64
2021/06/15 10:07:29;;;;;;;7.40;5.67;;;33.80;52.10;;;;;;5013198;28;20911;-64
2021/06/15 10:09:56;;;;;;;4.37;3.97;;;34.20;51.90;;;;;;5013298;28;20270;-64
2021/06/15 10:12:22;;;;;;;6.30;4.03;;;34.30;50.40;;;;;;5032537;28;20810;-64
2021/06/15 10:14:48;;;;;;;4.93;4.53;;;34.60;49.70;;;;;;5012069;28;20460;-63
2021/06/15 10:17:14;;;;;;;4.23;3.87;;;34.80;50.30;;;;;;5012233;28;20842;-63
2021/06/15 10:19:40;;;;;;;10.60;7.63;;;35.10;48.80;;;;;;5031663;28;20205;-63
2021/06/15 10:22:07;;;;;;;8.27;7.47;;;35.00;50.60;;;;;;5024002;28;20429;-64
2021/06/15 10:24:40;;;;;;;4.47;4.13;;;35.80;49.70;;;;;;5015409;28;20488;-63
2021/06/15 10:27:08;;;;;;;6.27;4.83;;;36.80;47.40;;;;;;5012016;28;20429;-64
2021/06/15 10:29:36;;;;;;;6.60;6.10;;;36.50;46.60;;;;;;5011170;28;20794;-63
2021/06/15 10:32:20;;;;;;;4.00;3.60;;;36.10;45.30;;;;;;5022511;28;20504;-63
2021/06/15 10:35:02;;;;;;;4.73;4.17;;;35.80;45.40;;;;;;5008460;28;20453;-63
2021/06/15 10:37:31;;;;;;;5.77;4.30;;;36.50;45.00;;;;;;5006913;28;20433;-64
2021/06/15 10:39:58;;;;;;;5.80;4.73;;;36.50;44.80;;;;;;5026369;28;20967;-63
2021/06/15 10:42:24;;;;;;;4.40;4.00;;;37.00;45.60;;;;;;5008305;28;20430;-61
2021/06/15 10:45:20;;;;;;;4.47;3.53;;;37.90;43.30;;;;;;5004582;28;20512;-61
2021/06/15 10:48:04;;;;;;;4.33;4.03;;;38.50;42.00;;;;;;5011688;28;20182;-61
2021/06/15 10:50:40;;;;;;;8.23;3.97;;;38.90;42.00;;;;;;5029842;28;20428;-60
2021/06/15 10:53:09;;;;;;;4.67;4.27;;;38.60;41.00;;;;;;5026238;28;20417;-61
2021/06/15 10:55:58;;;;;;;4.70;4.30;;;38.50;41.30;;;;;;5004308;28;20450;-61
2021/06/15 10:58:36;;;;;;;6.10;4.67;;;39.70;40.90;;;;;;5011248;28;20779;-61
2021/06/15 11:01:17;;;;;;;7.43;4.70;;;40.10;39.00;;;;;;5019751;28;20441;-61
2021/06/15 11:03:52;;;;;;;4.20;3.80;;;40.80;38.10;;;;;;5008405;28;20553;-61
2021/06/15 11:06:20;;;;;;;4.50;4.10;;;40.20;37.70;;;;;;5007744;28;20428;-60
2021/06/15 11:08:46;;;;;;;3.47;3.17;;;39.30;38.50;;;;;;5005670;28;20418;-60
2021/06/15 11:11:20;;;;;;;3.90;3.53;;;39.00;37.40;;;;;;5010389;28;20919;-61
2021/06/15 11:13:46;;;;;;;4.63;4.33;;;39.20;37.50;;;;;;5019936;28;20194;-60
2021/06/15 11:16:35;;;;;;;5.63;3.83;;;40.30;37.30;;;;;;5007094;28;20426;-61
2021/06/15 11:19:11;;;;;;;4.10;3.80;;;40.30;37.10;;;;;;5011133;28;20779;-61
2021/06/15 11:21:54;;;;;;;3.60;3.30;;;41.00;36.40;;;;;;5010706;28;20512;-60
2021/06/15 11:24:48;;;;;;;3.77;3.53;;;41.10;36.20;;;;;;5016765;28;20501;-61
2021/06/15 11:27:27;;;;;;;3.80;3.23;;;41.10;36.80;;;;;;5010786;28;20477;-61
2021/06/15 11:29:59;;;;;;;5.53;3.80;;;41.30;36.20;;;;;;5020724;28;20420;-61
2021/06/15 11:32:33;;;;;;;3.77;3.57;;;41.90;34.70;;;;;;5010893;28;20900;-61
2021/06/15 11:34:59;;;;;;;3.57;3.30;;;40.90;34.90;;;;;;5005891;28;20466;-61
2021/06/15 11:37:36;;;;;;;5.37;4.97;;;40.60;35.10;;;;;;5010997;28;20425;-61
2021/06/15 11:40:11;;;;;;;5.40;4.90;;;41.10;34.60;;;;;;5010772;28;20202;-60
2021/06/15 11:42:38;;;;;;;3.43;3.13;;;41.90;33.90;;;;;;5010455;28;20428;-61
2021/06/15 11:45:21;;;;;;;3.57;3.37;;;42.40;33.30;;;;;;5005819;28;20987;-61
2021/06/15 11:47:55;;;;;;;4.13;3.73;;;42.80;33.20;;;;;;5009620;28;20422;-61
2021/06/15 11:50:23;;;;;;;3.90;3.60;;;44.30;32.90;;;;;;5010817;28;20426;-61
2021/06/15 11:52:54;;;;;;;5.47;4.07;;;44.80;32.30;;;;;;5010659;28;20952;-60
2021/06/15 11:55:30;;;;;;;4.07;3.77;;;44.90;32.40;;;;;;5005267;28;20453;-61
2021/06/15 11:57:57;;;;;;;5.37;4.03;;;44.70;32.60;;;;;;5009773;28;20463;-61
2021/06/15 12:00:23;;;;;;;4.03;3.50;;;45.40;31.20;;;;;;5013130;28;20470;-61
2021/06/15 12:02:48;;;;;;;3.90;3.70;;;44.90;31.20;;;;;;5011008;28;20919;-61
2021/06/15 12:05:17;;;;;;;4.13;3.57;;;44.00;31.40;;;;;;5008940;28;20353;-61
2021/06/15 12:07:53;;;;;;;4.03;3.73;;;43.60;31.50;;;;;;5010662;28;20237;-61
2021/06/15 12:10:20;;;;;;;4.30;4.00;;;44.60;31.30;;;;;;5010658;28;20431;-61
2021/06/15 12:13:00;;;;;;;4.53;3.70;;;44.00;30.20;;;;;;5010418;28;20422;-61
2021/06/15 12:15:34;;;;;;;4.10;3.87;;;43.60;30.90;;;;;;5014868;28;20472;-61
2021/06/15 12:18:00;;;;;;;3.90;3.50;;;44.00;30.80;;;;;;5028631;28;20849;-61
2021/06/15 12:20:33;;;;;;;4.47;4.17;;;44.50;31.30;;;;;;5010504;28;20421;-61
2021/06/15 12:23:18;;;;;;;4.17;3.77;;;45.00;30.70;;;;;;5010505;28;20423;-61
2021/06/15 12:25:44;;;;;;;4.83;4.20;;;46.50;30.30;;;;;;5007998;28;20587;-61
2021/06/15 12:28:12;;;;;;;4.20;3.80;;;46.00;30.00;;;;;;5010256;28;21125;-61
2021/06/15 12:30:41;;;;;;;4.10;3.80;;;46.30;29.30;;;;;;5009177;28;20681;-61
2021/06/15 12:33:10;;;;;;;3.83;3.57;;;45.40;29.40;;;;;;5010638;28;20424;-61
2021/06/15 12:35:36;;;;;;;3.43;3.23;;;45.40;29.40;;;;;;5007318;28;20517;-61
2021/06/15 12:38:15;;;;;;;3.83;3.53;;;45.60;29.80;;;;;;5010613;28;20422;-61
2021/06/15 12:40:42;;;;;;;5.37;4.87;;;45.60;29.80;;;;;;5012353;28;20911;-61
2021/06/15 12:43:09;;;;;;;5.63;2.80;;;44.40;29.30;;;;;;5009727;28;20426;-61
2021/06/15 12:45:37;;;;;;;4.83;3.77;;;43.90;29.40;;;;;;5010231;28;20441;-61
2021/06/15 12:48:26;;;;;;;4.97;3.23;;;43.80;29.60;;;;;;5013504;28;20433;-61
2021/06/15 12:51:12;;;;;;;5.00;3.60;;;42.70;29.50;;;;;;5010268;28;20436;-60
2021/06/15 12:53:40;;;;;;;4.00;3.70;;;41.10;30.80;;;;;;5012433;28;20469;-61
2021/06/15 12:56:28;;;;;;;4.10;3.80;;;42.50;31.10;;;;;;5010420;28;20438;-61
2021/06/15 12:58:56;;;;;;;3.60;3.40;;;43.40;30.60;;;;;;5007982;28;20429;-60
2021/06/15 13:01:36;;;;;;;3.60;3.30;;;43.00;30.40;;;;;;5012899;28;20792;-61
2021/06/15 13:04:24;;;;;;;3.70;3.40;;;43.30;30.30;;;;;;5009445;28;20457;-60